sensor_id;sensor_type;location;lat;lon;timestamp;pressure;altitude;pressure_sealevel;temperature;humidity
70921;BME280;58572;48.110;19.838;2023-09-08T00:01:12;98504.56;;;18.81;69.89
70921;BME280;58572;48.110;19.838;2023-09-08T00:03:39;98509.75;;;18.83;70.06
70921;BME280;58572;48.110;19.838;2023-09-08T00:06:06;98504.59;;;18.99;69.44
70921;BME280;58572;48.110;19.838;2023-09-08T00:08:33;98480.09;;;18.80;68.27
70921;BME280;58572;48.110;19.838;2023-09-08T00:11:00;98498.09;;;18.95;68.79
70921;BME280;58572;48.110;19.838;2023-09-08T00:13:27;98502.69;;;18.60;70.90
70921;BME280;58572;48.110;19.838;2023-09-08T00:15:56;98501.16;;;18.76;69.94
70921;BME280;58572;48.110;19.838;2023-09-08T00:18:23;98504.91;;;18.80;69.09
70921;BME280;58572;48.110;19.838;2023-09-08T00:20:50;98506.25;;;18.51;70.35
70921;BME280;58572;48.110;19.838;2023-09-08T00:23:17;98505.31;;;18.65;70.49
70921;BME280;58572;48.110;19.838;2023-09-08T00:25:44;98502.78;;;18.77;69.50
70921;BME280;58572;48.110;19.838;2023-09-08T00:28:11;98504.25;;;18.83;69.48
70921;BME280;58572;48.110;19.838;2023-09-08T00:30:38;98494.94;;;18.13;72.65
70921;BME280;58572;48.110;19.838;2023-09-08T00:33:07;98498.41;;;18.76;69.66
70921;BME280;58572;48.110;19.838;2023-09-08T00:35:34;98486.97;;;18.60;70.68
70921;BME280;58572;48.110;19.838;2023-09-08T00:38:01;98489.50;;;18.79;69.55
70921;BME280;58572;48.110;19.838;2023-09-08T00:40:29;98491.47;;;18.96;68.29
70921;BME280;58572;48.110;19.838;2023-09-08T00:42:56;98498.13;;;18.46;70.45
70921;BME280;58572;48.110;19.838;2023-09-08T00:45:23;98495.78;;;18.71;69.60
70921;BME280;58572;48.110;19.838;2023-09-08T00:47:53;98496.16;;;18.38;72.69
70921;BME280;58572;48.110;19.838;2023-09-08T00:50:22;98493.44;;;18.47;71.10
70921;BME280;58572;48.110;19.838;2023-09-08T00:52:49;98490.66;;;18.38;71.46
70921;BME280;58572;48.110;19.838;2023-09-08T00:55:17;98504.03;;;18.62;70.27
70921;BME280;58572;48.110;19.838;2023-09-08T00:57:45;98492.78;;;18.50;71.29
70921;BME280;58572;48.110;19.838;2023-09-08T01:00:13;98478.69;;;18.43;70.22
70921;BME280;58572;48.110;19.838;2023-09-08T01:02:40;98487.94;;;18.47;71.08
70921;BME280;58572;48.110;19.838;2023-09-08T01:05:10;98477.63;;;18.70;69.28
70921;BME280;58572;48.110;19.838;2023-09-08T01:07:40;98475.16;;;18.60;70.28
70921;BME280;58572;48.110;19.838;2023-09-08T01:10:09;98481.56;;;18.86;68.59
70921;BME280;58572;48.110;19.838;2023-09-08T01:12:36;98484.38;;;18.55;71.01
70921;BME280;58572;48.110;19.838;2023-09-08T01:15:04;98483.81;;;18.27;72.30
70921;BME280;58572;48.110;19.838;2023-09-08T01:17:32;98474.91;;;18.78;68.92
70921;BME280;58572;48.110;19.838;2023-09-08T01:20:02;98478.50;;;18.31;71.45
70921;BME280;58572;48.110;19.838;2023-09-08T01:25:25;98420.22;;;17.80;71.87
70921;BME280;58572;48.110;19.838;2023-09-08T01:27:54;98465.91;;;18.47;70.36
70921;BME280;58572;48.110;19.838;2023-09-08T01:30:25;98470.22;;;18.79;69.26
70921;BME280;58572;48.110;19.838;2023-09-08T01:32:53;98456.50;;;18.48;69.88
70921;BME280;58572;48.110;19.838;2023-09-08T01:35:21;98461.16;;;18.30;72.22
70921;BME280;58572;48.110;19.838;2023-09-08T01:37:48;98458.44;;;18.39;71.71
70921;BME280;58572;48.110;19.838;2023-09-08T01:40:15;98465.44;;;18.54;70.30
70921;BME280;58572;48.110;19.838;2023-09-08T01:42:45;98467.19;;;18.49;70.89
70921;BME280;58572;48.110;19.838;2023-09-08T01:45:13;98470.75;;;18.41;71.61
70921;BME280;58572;48.110;19.838;2023-09-08T01:47:40;98473.09;;;18.17;72.57
70921;BME280;58572;48.110;19.838;2023-09-08T01:50:07;98467.41;;;18.62;69.56
70921;BME280;58572;48.110;19.838;2023-09-08T01:52:35;98466.16;;;18.28;72.88
70921;BME280;58572;48.110;19.838;2023-09-08T01:55:01;98469.91;;;18.32;71.29
70921;BME280;58572;48.110;19.838;2023-09-08T01:57:28;98474.78;;;18.35;71.58
70921;BME280;58572;48.110;19.838;2023-09-08T01:59:56;98395.22;;;17.68;72.03
70921;BME280;58572;48.110;19.838;2023-09-08T02:02:24;98480.44;;;18.30;72.06
70921;BME280;58572;48.110;19.838;2023-09-08T02:04:51;98477.41;;;18.58;70.60
70921;BME280;58572;48.110;19.838;2023-09-08T02:07:18;98478.34;;;18.44;70.95
70921;BME280;58572;48.110;19.838;2023-09-08T02:09:45;98486.13;;;18.42;70.44
70921;BME280;58572;48.110;19.838;2023-09-08T02:12:12;98489.75;;;18.12;72.24
70921;BME280;58572;48.110;19.838;2023-09-08T02:14:39;98482.19;;;18.26;72.57
70921;BME280;58572;48.110;19.838;2023-09-08T02:17:08;98485.75;;;17.87;73.19
70921;BME280;58572;48.110;19.838;2023-09-08T02:19:35;98487.34;;;18.19;72.25
70921;BME280;58572;48.110;19.838;2023-09-08T02:22:03;98427.81;;;18.32;69.45
70921;BME280;58572;48.110;19.838;2023-09-08T02:24:30;98480.06;;;18.14;71.84
70921;BME280;58572;48.110;19.838;2023-09-08T02:26:57;98480.47;;;18.47;69.88
70921;BME280;58572;48.110;19.838;2023-09-08T02:29:24;98481.72;;;18.81;69.05
70921;BME280;58572;48.110;19.838;2023-09-08T02:31:51;98461.50;;;17.89;73.12
70921;BME280;58572;48.110;19.838;2023-09-08T02:34:20;98480.91;;;18.32;72.23
70921;BME280;58572;48.110;19.838;2023-09-08T02:36:47;98480.13;;;18.40;71.00
70921;BME280;58572;48.110;19.838;2023-09-08T02:39:16;98454.78;;;18.12;71.31
70921;BME280;58572;48.110;19.838;2023-09-08T02:41:43;98477.56;;;18.52;71.40
70921;BME280;58572;48.110;19.838;2023-09-08T02:44:10;98480.91;;;18.32;71.21
70921;BME280;58572;48.110;19.838;2023-09-08T02:46:38;98480.44;;;18.39;71.42
70921;BME280;58572;48.110;19.838;2023-09-08T02:49:06;98458.22;;;18.18;72.11
70921;BME280;58572;48.110;19.838;2023-09-08T02:51:35;98480.78;;;18.37;72.26
70921;BME280;58572;48.110;19.838;2023-09-08T02:54:02;98476.06;;;18.29;72.20
70921;BME280;58572;48.110;19.838;2023-09-08T02:56:29;98473.47;;;18.33;71.38
70921;BME280;58572;48.110;19.838;2023-09-08T02:58:56;98467.97;;;18.90;68.37
70921;BME280;58572;48.110;19.838;2023-09-08T03:01:23;98391.03;;;18.28;69.41
70921;BME280;58572;48.110;19.838;2023-09-08T03:03:51;98474.25;;;18.73;69.47
70921;BME280;58572;48.110;19.838;2023-09-08T03:06:19;98472.66;;;18.89;68.50
70921;BME280;58572;48.110;19.838;2023-09-08T03:08:48;98424.72;;;18.25;69.84
70921;BME280;58572;48.110;19.838;2023-09-08T03:11:15;98463.25;;;19.16;67.56
70921;BME280;58572;48.110;19.838;2023-09-08T03:13:42;98468.53;;;18.04;71.89
70921;BME280;58572;48.110;19.838;2023-09-08T03:16:10;98465.91;;;18.47;70.28
70921;BME280;58572;48.110;19.838;2023-09-08T03:18:37;98466.13;;;18.68;69.75
70921;BME280;58572;48.110;19.838;2023-09-08T03:21:05;98469.91;;;18.32;72.06
70921;BME280;58572;48.110;19.838;2023-09-08T03:23:36;98472.28;;;18.65;69.89
70921;BME280;58572;48.110;19.838;2023-09-08T03:26:06;98468.19;;;18.54;69.58
70921;BME280;58572;48.110;19.838;2023-09-08T03:28:35;98468.97;;;18.45;70.08
70921;BME280;58572;48.110;19.838;2023-09-08T03:31:03;98468.91;;;18.19;71.01
70921;BME280;58572;48.110;19.838;2023-09-08T03:33:30;98470.13;;;18.53;70.33
70921;BME280;58572;48.110;19.838;2023-09-08T03:35:56;98434.94;;;18.41;69.52
70921;BME280;58572;48.110;19.838;2023-09-08T03:38:23;98465.19;;;18.81;68.88
70921;BME280;58572;48.110;19.838;2023-09-08T03:40:51;98473.50;;;18.41;70.28
70921;BME280;58572;48.110;19.838;2023-09-08T03:43:19;98476.78;;;18.61;69.42
70921;BME280;58572;48.110;19.838;2023-09-08T03:45:47;98470.72;;;18.33;71.80
70921;BME280;58572;48.110;19.838;2023-09-08T03:48:14;98470.09;;;18.36;70.60
70921;BME280;58572;48.110;19.838;2023-09-08T03:50:41;98469.72;;;18.20;71.78
70921;BME280;58572;48.110;19.838;2023-09-08T03:53:11;98447.78;;;17.98;70.93
70921;BME280;58572;48.110;19.838;2023-09-08T03:55:38;98463.19;;;18.07;70.99
70921;BME280;58572;48.110;19.838;2023-09-08T03:58:05;98464.06;;;18.25;70.90
70921;BME280;58572;48.110;19.838;2023-09-08T04:00:34;98462.72;;;18.62;69.12
70921;BME280;58572;48.110;19.838;2023-09-08T04:03:01;98465.34;;;18.19;70.89
70921;BME280;58572;48.110;19.838;2023-09-08T04:05:29;98466.84;;;18.42;70.43
70921;BME280;58572;48.110;19.838;2023-09-08T04:07:56;98467.53;;;18.57;71.40
70921;BME280;58572;48.110;19.838;2023-09-08T04:10:24;98470.00;;;18.10;72.48
70921;BME280;58572;48.110;19.838;2023-09-08T04:12:51;98459.38;;;18.26;71.96
70921;BME280;58572;48.110;19.838;2023-09-08T04:15:18;98468.16;;;18.45;69.63
70921;BME280;58572;48.110;19.838;2023-09-08T04:17:47;98468.97;;;18.45;69.59
70921;BME280;58572;48.110;19.838;2023-09-08T04:20:15;98466.38;;;18.40;70.54
70921;BME280;58572;48.110;19.838;2023-09-08T04:22:42;98412.22;;;18.10;69.67
70921;BME280;58572;48.110;19.838;2023-09-08T04:25:10;98479.66;;;18.38;70.92
70921;BME280;58572;48.110;19.838;2023-09-08T04:27:37;98468.94;;;19.02;67.10
70921;BME280;58572;48.110;19.838;2023-09-08T04:30:06;98474.88;;;18.70;68.15
70921;BME280;58572;48.110;19.838;2023-09-08T04:32:33;98474.00;;;18.43;69.27
70921;BME280;58572;48.110;19.838;2023-09-08T04:35:05;98486.38;;;18.15;71.37
70921;BME280;58572;48.110;19.838;2023-09-08T04:37:32;98479.00;;;17.93;71.35
70921;BME280;58572;48.110;19.838;2023-09-08T04:40:00;98490.00;;;18.41;69.63
70921;BME280;58572;48.110;19.838;2023-09-08T04:42:27;98479.44;;;18.26;70.22
70921;BME280;58572;48.110;19.838;2023-09-08T04:44:54;98489.13;;;18.72;68.83
70921;BME280;58572;48.110;19.838;2023-09-08T04:47:22;98484.47;;;18.81;67.95
70921;BME280;58572;48.110;19.838;2023-09-08T04:49:48;98489.25;;;18.10;71.78
70921;BME280;58572;48.110;19.838;2023-09-08T04:52:17;98490.22;;;18.54;68.49
70921;BME280;58572;48.110;19.838;2023-09-08T04:54:44;98433.06;;;18.02;70.80
70921;BME280;58572;48.110;19.838;2023-09-08T04:57:12;98490.69;;;18.56;70.31
70921;BME280;58572;48.110;19.838;2023-09-08T04:59:39;98496.34;;;18.42;69.69
70921;BME280;58572;48.110;19.838;2023-09-08T05:02:06;98494.59;;;18.55;69.15
70921;BME280;58572;48.110;19.838;2023-09-08T05:04:33;98493.75;;;18.45;70.96
70921;BME280;58572;48.110;19.838;2023-09-08T05:07:00;98493.72;;;18.85;68.15
70921;BME280;58572;48.110;19.838;2023-09-08T05:09:29;98495.28;;;18.69;70.43
70921;BME280;58572;48.110;19.838;2023-09-08T05:11:56;98493.28;;;18.61;69.74
70921;BME280;58572;48.110;19.838;2023-09-08T05:14:25;98502.78;;;18.77;68.75
70921;BME280;58572;48.110;19.838;2023-09-08T05:16:52;98492.41;;;18.74;69.05
70921;BME280;58572;48.110;19.838;2023-09-08T05:19:21;98500.38;;;18.44;70.30
70921;BME280;58572;48.110;19.838;2023-09-08T05:21:50;98504.69;;;18.68;69.82
70921;BME280;58572;48.110;19.838;2023-09-08T05:24:17;98506.78;;;18.62;70.50
70921;BME280;58572;48.110;19.838;2023-09-08T05:26:48;98510.25;;;19.02;68.05
70921;BME280;58572;48.110;19.838;2023-09-08T05:29:15;98436.50;;;18.73;68.55
70921;BME280;58572;48.110;19.838;2023-09-08T05:31:42;98504.44;;;19.04;69.98
70921;BME280;58572;48.110;19.838;2023-09-08T05:34:10;98503.13;;;18.84;69.47
70921;BME280;58572;48.110;19.838;2023-09-08T05:36:37;98506.25;;;18.51;71.00
70921;BME280;58572;48.110;19.838;2023-09-08T05:39:05;98514.56;;;18.69;71.72
70921;BME280;58572;48.110;19.838;2023-09-08T05:41:32;98510.91;;;18.99;68.42
70921;BME280;58572;48.110;19.838;2023-09-08T05:44:01;98509.63;;;19.05;68.67
70921;BME280;58572;48.110;19.838;2023-09-08T05:46:29;98516.44;;;19.17;67.54
70921;BME280;58572;48.110;19.838;2023-09-08T05:48:57;98517.22;;;19.00;69.58
70921;BME280;58572;48.110;19.838;2023-09-08T05:51:24;98513.84;;;19.29;68.64
70921;BME280;58572;48.110;19.838;2023-09-08T05:53:51;98517.72;;;18.93;70.36
70921;BME280;58572;48.110;19.838;2023-09-08T05:56:18;98518.69;;;18.49;72.67
70921;BME280;58572;48.110;19.838;2023-09-08T05:58:45;98420.72;;;18.57;69.20
70921;BME280;58572;48.110;19.838;2023-09-08T06:01:15;98511.41;;;19.27;67.64
70921;BME280;58572;48.110;19.838;2023-09-08T06:03:42;98508.66;;;19.01;70.65
70921;BME280;58572;48.110;19.838;2023-09-08T06:06:09;98506.88;;;19.05;69.75
70921;BME280;58572;48.110;19.838;2023-09-08T06:08:36;98456.78;;;18.86;69.83
70921;BME280;58572;48.110;19.838;2023-09-08T06:11:03;98510.75;;;19.13;68.91
70921;BME280;58572;48.110;19.838;2023-09-08T06:13:31;98504.56;;;19.51;67.95
70921;BME280;58572;48.110;19.838;2023-09-08T06:15:58;98508.13;;;18.82;71.10
70921;BME280;58572;48.110;19.838;2023-09-08T06:18:28;98513.50;;;18.96;71.24
70921;BME280;58572;48.110;19.838;2023-09-08T06:20:56;98512.88;;;19.25;70.58
70921;BME280;58572;48.110;19.838;2023-09-08T06:23:23;98520.00;;;19.08;69.68
70921;BME280;58572;48.110;19.838;2023-09-08T06:25:50;98521.78;;;18.96;70.77
70921;BME280;58572;48.110;19.838;2023-09-08T06:28:18;98514.31;;;19.13;69.07
70921;BME280;58572;48.110;19.838;2023-09-08T06:30:45;98510.38;;;19.75;69.05
70921;BME280;58572;48.110;19.838;2023-09-08T06:33:12;98514.97;;;19.02;71.16
70921;BME280;58572;48.110;19.838;2023-09-08T06:35:40;98511.56;;;18.96;71.60
70921;BME280;58572;48.110;19.838;2023-09-08T06:38:07;98512.19;;;19.62;67.86
70921;BME280;58572;48.110;19.838;2023-09-08T06:40:34;98511.38;;;19.79;67.81
70921;BME280;58572;48.110;19.838;2023-09-08T06:43:01;98513.50;;;19.39;69.95
70921;BME280;58572;48.110;19.838;2023-09-08T06:45:29;98524.38;;;19.27;69.49
70921;BME280;58572;48.110;19.838;2023-09-08T06:47:56;98515.78;;;19.20;69.66
70921;BME280;58572;48.110;19.838;2023-09-08T06:50:23;98506.28;;;20.07;67.17
70921;BME280;58572;48.110;19.838;2023-09-08T06:52:53;98517.38;;;19.90;68.32
70921;BME280;58572;48.110;19.838;2023-09-08T06:55:20;98512.97;;;19.97;69.17
70921;BME280;58572;48.110;19.838;2023-09-08T06:57:48;98506.38;;;19.38;71.41
70921;BME280;58572;48.110;19.838;2023-09-08T07:00:15;98500.25;;;20.05;69.15
70921;BME280;58572;48.110;19.838;2023-09-08T07:02:46;98484.63;;;19.45;70.12
70921;BME280;58572;48.110;19.838;2023-09-08T07:05:15;98498.09;;;19.55;68.22
70921;BME280;58572;48.110;19.838;2023-09-08T07:07:42;98506.50;;;20.31;66.46
70921;BME280;58572;48.110;19.838;2023-09-08T07:10:11;98515.63;;;20.23;67.99
70921;BME280;58572;48.110;19.838;2023-09-08T07:12:39;98509.72;;;20.71;66.25
70921;BME280;58572;48.110;19.838;2023-09-08T07:15:07;98504.53;;;20.40;66.22
70921;BME280;58572;48.110;19.838;2023-09-08T07:17:34;98510.47;;;20.51;64.09
70921;BME280;58572;48.110;19.838;2023-09-08T07:20:01;98511.81;;;20.45;65.85
70921;BME280;58572;48.110;19.838;2023-09-08T07:22:28;98501.81;;;21.12;64.83
70921;BME280;58572;48.110;19.838;2023-09-08T07:24:56;98507.00;;;20.63;65.06
70921;BME280;58572;48.110;19.838;2023-09-08T07:27:24;98484.41;;;20.31;66.87
70921;BME280;58572;48.110;19.838;2023-09-08T07:29:51;98502.00;;;20.56;66.79
70921;BME280;58572;48.110;19.838;2023-09-08T07:32:19;98515.09;;;20.68;67.81
70921;BME280;58572;48.110;19.838;2023-09-08T07:34:46;98505.00;;;20.72;66.50
70921;BME280;58572;48.110;19.838;2023-09-08T07:37:20;98504.66;;;21.24;64.93
70921;BME280;58572;48.110;19.838;2023-09-08T07:39:47;98505.59;;;21.07;64.47
70921;BME280;58572;48.110;19.838;2023-09-08T07:42:14;98505.31;;;21.21;64.83
70921;BME280;58572;48.110;19.838;2023-09-08T07:44:43;98504.53;;;21.41;64.06
70921;BME280;58572;48.110;19.838;2023-09-08T07:47:11;98498.94;;;21.62;63.30
70921;BME280;58572;48.110;19.838;2023-09-08T07:49:38;98504.81;;;21.27;66.28
70921;BME280;58572;48.110;19.838;2023-09-08T07:52:05;98501.53;;;22.12;63.56
70921;BME280;58572;48.110;19.838;2023-09-08T07:54:33;98510.31;;;21.07;66.89
70921;BME280;58572;48.110;19.838;2023-09-08T07:57:00;98500.25;;;21.77;64.23
70921;BME280;58572;48.110;19.838;2023-09-08T07:59:27;98501.16;;;21.35;65.40
70921;BME280;58572;48.110;19.838;2023-09-08T08:01:55;98500.84;;;22.03;63.90
70921;BME280;58572;48.110;19.838;2023-09-08T08:04:23;98499.88;;;21.99;63.96
70921;BME280;58572;48.110;19.838;2023-09-08T08:06:50;98499.19;;;23.24;60.94
70921;BME280;58572;48.110;19.838;2023-09-08T08:09:17;98494.56;;;23.16;57.38
70921;BME280;58572;48.110;19.838;2023-09-08T08:11:44;98499.34;;;23.71;58.60
70921;BME280;58572;48.110;19.838;2023-09-08T08:14:11;98500.09;;;23.28;59.80
70921;BME280;58572;48.110;19.838;2023-09-08T08:16:39;98500.44;;;23.82;59.16
70921;BME280;58572;48.110;19.838;2023-09-08T08:19:08;98487.09;;;23.88;57.30
70921;BME280;58572;48.110;19.838;2023-09-08T08:21:35;98489.84;;;23.44;60.17
70921;BME280;58572;48.110;19.838;2023-09-08T08:24:03;98271.69;;;22.00;60.84
70921;BME280;58572;48.110;19.838;2023-09-08T08:26:30;98487.53;;;24.34;56.79
70921;BME280;58572;48.110;19.838;2023-09-08T08:28:58;98494.19;;;23.85;59.17
70921;BME280;58572;48.110;19.838;2023-09-08T08:31:25;98490.38;;;24.69;56.65
70921;BME280;58572;48.110;19.838;2023-09-08T08:33:52;98485.59;;;24.69;54.36
70921;BME280;58572;48.110;19.838;2023-09-08T08:36:21;98485.22;;;25.60;52.43
70921;BME280;58572;48.110;19.838;2023-09-08T08:38:48;98474.91;;;25.03;55.96
70921;BME280;58572;48.110;19.838;2023-09-08T08:41:15;98469.13;;;25.31;54.02
70921;BME280;58572;48.110;19.838;2023-09-08T08:43:45;98492.16;;;24.61;53.22
70921;BME280;58572;48.110;19.838;2023-09-08T08:46:13;98478.28;;;25.12;50.39
70921;BME280;58572;48.110;19.838;2023-09-08T08:48:42;98485.78;;;26.08;52.59
70921;BME280;58572;48.110;19.838;2023-09-08T08:51:13;98481.59;;;25.98;52.34
70921;BME280;58572;48.110;19.838;2023-09-08T08:53:58;98483.53;;;25.75;52.43
70921;BME280;58572;48.110;19.838;2023-09-08T08:56:43;98487.13;;;25.56;54.66
70921;BME280;58572;48.110;19.838;2023-09-08T08:59:11;98389.00;;;25.63;56.01
70921;BME280;58572;48.110;19.838;2023-09-08T09:01:39;98479.38;;;26.53;54.03
70921;BME280;58572;48.110;19.838;2023-09-08T09:04:08;98472.91;;;26.98;51.88
70921;BME280;58572;48.110;19.838;2023-09-08T09:06:37;98478.59;;;27.06;51.22
70921;BME280;58572;48.110;19.838;2023-09-08T09:09:06;98477.78;;;26.29;54.57
70921;BME280;58572;48.110;19.838;2023-09-08T09:11:36;98477.81;;;25.87;53.55
70921;BME280;58572;48.110;19.838;2023-09-08T09:14:03;98472.88;;;26.46;52.35
70921;BME280;58572;48.110;19.838;2023-09-08T09:16:30;98471.75;;;26.77;52.24
70921;BME280;58572;48.110;19.838;2023-09-08T09:18:59;98459.78;;;25.62;51.81
70921;BME280;58572;48.110;19.838;2023-09-08T09:21:42;98471.56;;;27.15;50.07
70921;BME280;58572;48.110;19.838;2023-09-08T09:24:15;98444.06;;;27.17;50.99
70921;BME280;58572;48.110;19.838;2023-09-08T09:26:42;98480.97;;;27.33;50.96
70921;BME280;58572;48.110;19.838;2023-09-08T09:29:12;98486.78;;;27.21;48.17
70921;BME280;58572;48.110;19.838;2023-09-08T09:31:51;98477.44;;;27.70;49.05
70921;BME280;58572;48.110;19.838;2023-09-08T09:34:20;98446.84;;;26.91;49.64
70921;BME280;58572;48.110;19.838;2023-09-08T09:36:48;98476.94;;;27.61;49.03
70921;BME280;58572;48.110;19.838;2023-09-08T09:39:21;98469.81;;;28.08;48.23
70921;BME280;58572;48.110;19.838;2023-09-08T09:41:49;98477.06;;;28.56;47.01
70921;BME280;58572;48.110;19.838;2023-09-08T09:44:16;98472.19;;;28.46;49.02
70921;BME280;58572;48.110;19.838;2023-09-08T09:46:44;98471.72;;;27.96;48.24
70921;BME280;58572;48.110;19.838;2023-09-08T09:49:12;98468.09;;;28.33;48.50
70921;BME280;58572;48.110;19.838;2023-09-08T09:51:42;98465.19;;;27.82;49.32
70921;BME280;58572;48.110;19.838;2023-09-08T09:54:09;98460.38;;;28.67;50.10
70921;BME280;58572;48.110;19.838;2023-09-08T09:56:39;98468.00;;;27.85;48.46
70921;BME280;58572;48.110;19.838;2023-09-08T09:59:08;98468.88;;;28.30;50.89
70921;BME280;58572;48.110;19.838;2023-09-08T10:01:36;98462.09;;;28.31;51.04
70921;BME280;58572;48.110;19.838;2023-09-08T10:04:04;98458.00;;;29.42;46.00
70921;BME280;58572;48.110;19.838;2023-09-08T10:06:32;98438.88;;;28.82;47.96
70921;BME280;58572;48.110;19.838;2023-09-08T10:09:00;98464.53;;;28.91;47.86
70921;BME280;58572;48.110;19.838;2023-09-08T10:11:34;98463.06;;;29.11;46.07
70921;BME280;58572;48.110;19.838;2023-09-08T10:14:04;98459.44;;;28.49;47.56
70921;BME280;58572;48.110;19.838;2023-09-08T10:16:34;98468.03;;;28.81;49.46
70921;BME280;58572;48.110;19.838;2023-09-08T10:19:07;98459.03;;;29.05;46.89
70921;BME280;58572;48.110;19.838;2023-09-08T10:21:39;98453.69;;;29.62;48.34
70921;BME280;58572;48.110;19.838;2023-09-08T10:24:13;98460.16;;;29.91;45.77
70921;BME280;58572;48.110;19.838;2023-09-08T10:26:44;98428.06;;;29.60;45.38
70921;BME280;58572;48.110;19.838;2023-09-08T10:29:15;98453.69;;;29.55;45.96
70921;BME280;58572;48.110;19.838;2023-09-08T10:31:43;98437.78;;;30.02;45.47
70921;BME280;58572;48.110;19.838;2023-09-08T10:34:11;98449.78;;;30.06;44.64
70921;BME280;58572;48.110;19.838;2023-09-08T10:36:38;98459.06;;;29.12;49.70
70921;BME280;58572;48.110;19.838;2023-09-08T10:39:28;98460.06;;;29.45;47.97
70921;BME280;58572;48.110;19.838;2023-09-08T10:42:21;98448.63;;;29.09;45.81
70921;BME280;58572;48.110;19.838;2023-09-08T10:45:01;98447.81;;;30.38;45.03
70921;BME280;58572;48.110;19.838;2023-09-08T10:47:34;98458.34;;;29.26;48.60
70921;BME280;58572;48.110;19.838;2023-09-08T10:50:07;98456.13;;;29.74;46.86
70921;BME280;58572;48.110;19.838;2023-09-08T10:52:35;98449.38;;;30.00;46.64
70921;BME280;58572;48.110;19.838;2023-09-08T10:55:03;98446.63;;;30.32;46.02
70921;BME280;58572;48.110;19.838;2023-09-08T10:57:33;98442.13;;;29.81;45.65
70921;BME280;58572;48.110;19.838;2023-09-08T11:00:05;98440.91;;;29.68;46.82
70921;BME280;58572;48.110;19.838;2023-09-08T11:02:38;98443.41;;;30.34;44.76
70921;BME280;58572;48.110;19.838;2023-09-08T11:05:08;98438.00;;;29.40;45.91
70921;BME280;58572;48.110;19.838;2023-09-08T11:07:36;98408.06;;;29.65;45.11
70921;BME280;58572;48.110;19.838;2023-09-08T11:10:04;98432.91;;;29.70;45.12
70921;BME280;58572;48.110;19.838;2023-09-08T11:12:33;98437.25;;;29.57;44.01
70921;BME280;58572;48.110;19.838;2023-09-08T11:15:03;98412.13;;;30.64;43.90
70921;BME280;58572;48.110;19.838;2023-09-08T11:17:31;98416.13;;;30.56;43.29
70921;BME280;58572;48.110;19.838;2023-09-08T11:20:00;98426.94;;;29.97;45.35
70921;BME280;58572;48.110;19.838;2023-09-08T11:22:29;98433.78;;;30.17;47.13
70921;BME280;58572;48.110;19.838;2023-09-08T11:24:57;98422.88;;;29.69;48.61
70921;BME280;58572;48.110;19.838;2023-09-08T11:27:24;98426.56;;;30.66;46.57
70921;BME280;58572;48.110;19.838;2023-09-08T11:29:51;98422.91;;;29.83;43.22
70921;BME280;58572;48.110;19.838;2023-09-08T11:32:20;98415.28;;;29.73;44.11
70921;BME280;58572;48.110;19.838;2023-09-08T11:34:47;98426.66;;;29.11;45.53
70921;BME280;58572;48.110;19.838;2023-09-08T11:37:14;98410.94;;;30.36;43.03
70921;BME280;58572;48.110;19.838;2023-09-08T11:39:43;98416.94;;;30.06;47.99
70921;BME280;58572;48.110;19.838;2023-09-08T11:42:13;98418.75;;;29.28;45.65
70921;BME280;58572;48.110;19.838;2023-09-08T11:44:41;98420.97;;;30.44;43.63
70921;BME280;58572;48.110;19.838;2023-09-08T11:47:10;98410.09;;;30.78;42.72
70921;BME280;58572;48.110;19.838;2023-09-08T11:49:40;98396.13;;;30.18;44.89
70921;BME280;58572;48.110;19.838;2023-09-08T11:52:07;98409.97;;;28.64;48.82
70921;BME280;58572;48.110;19.838;2023-09-08T11:54:35;98403.22;;;29.51;48.50
70921;BME280;58572;48.110;19.838;2023-09-08T11:57:05;98408.84;;;29.62;46.92
70921;BME280;58572;48.110;19.838;2023-09-08T11:59:34;98404.09;;;29.91;45.24
70921;BME280;58572;48.110;19.838;2023-09-08T12:02:02;98400.00;;;31.02;45.30
70921;BME280;58572;48.110;19.838;2023-09-08T12:04:30;98396.88;;;30.01;43.55
70921;BME280;58572;48.110;19.838;2023-09-08T12:06:58;98388.91;;;30.38;42.69
70921;BME280;58572;48.110;19.838;2023-09-08T12:09:26;98344.41;;;30.40;44.31
70921;BME280;58572;48.110;19.838;2023-09-08T12:11:53;98390.44;;;29.54;45.15
70921;BME280;58572;48.110;19.838;2023-09-08T12:14:21;98390.84;;;28.76;47.80
70921;BME280;58572;48.110;19.838;2023-09-08T12:16:48;98383.28;;;30.60;44.00
70921;BME280;58572;48.110;19.838;2023-09-08T12:22:05;98382.19;;;28.96;46.46
70921;BME280;58572;48.110;19.838;2023-09-08T12:25:00;98378.59;;;28.29;48.51
70921;BME280;58572;48.110;19.838;2023-09-08T12:27:28;98378.44;;;29.82;46.74
70921;BME280;58572;48.110;19.838;2023-09-08T12:29:59;98378.03;;;29.55;46.04
70921;BME280;58572;48.110;19.838;2023-09-08T12:32:30;98377.38;;;28.96;50.25
70921;BME280;58572;48.110;19.838;2023-09-08T12:34:58;98360.84;;;29.88;46.40
70921;BME280;58572;48.110;19.838;2023-09-08T12:37:28;98364.84;;;29.80;46.32
70921;BME280;58572;48.110;19.838;2023-09-08T12:39:57;98365.63;;;30.48;44.61
70921;BME280;58572;48.110;19.838;2023-09-08T12:42:26;98363.25;;;30.40;46.83
70921;BME280;58572;48.110;19.838;2023-09-08T12:44:54;98365.63;;;29.95;45.10
70921;BME280;58572;48.110;19.838;2023-09-08T12:47:24;98358.03;;;29.81;47.76
70921;BME280;58572;48.110;19.838;2023-09-08T12:49:52;98359.88;;;29.13;44.59
70921;BME280;58572;48.110;19.838;2023-09-08T12:52:21;98351.25;;;30.25;45.25
70921;BME280;58572;48.110;19.838;2023-09-08T12:54:50;98346.19;;;31.11;44.37
70921;BME280;58572;48.110;19.838;2023-09-08T12:57:17;98342.50;;;31.35;41.40
70921;BME280;58572;48.110;19.838;2023-09-08T12:59:44;98354.38;;;29.49;45.16
70921;BME280;58572;48.110;19.838;2023-09-08T13:02:11;98341.00;;;31.02;46.15